sensor_id;sensor_type;location;lat;lon;timestamp;temperature;humidity
44647;DHT22;56315;-33.902;151.160;2022-10-16T00:02:10;31.70;66.00
44647;DHT22;56315;-33.902;151.160;2022-10-16T00:04:37;31.60;66.80
44647;DHT22;56315;-33.902;151.160;2022-10-16T00:07:03;31.90;67.60
44647;DHT22;56315;-33.902;151.160;2022-10-16T00:09:30;32.20;65.90
44647;DHT22;56315;-33.902;151.160;2022-10-16T00:11:57;32.50;64.80
44647;DHT22;56315;-33.902;151.160;2022-10-16T00:14:23;32.40;66.10
44647;DHT22;56315;-33.902;151.160;2022-10-16T00:16:50;32.20;66.00
44647;DHT22;56315;-33.902;151.160;2022-10-16T00:19:17;31.60;65.60
44647;DHT22;56315;-33.902;151.160;2022-10-16T00:21:43;31.80;66.10
44647;DHT22;56315;-33.902;151.160;2022-10-16T00:24:10;31.90;65.00
44647;DHT22;56315;-33.902;151.160;2022-10-16T00:26:37;31.70;66.70
44647;DHT22;56315;-33.902;151.160;2022-10-16T00:29:04;31.80;65.10
44647;DHT22;56315;-33.902;151.160;2022-10-16T00:31:31;31.60;67.60
44647;DHT22;56315;-33.902;151.160;2022-10-16T00:33:58;31.60;66.20
44647;DHT22;56315;-33.902;151.160;2022-10-16T00:36:26;32.00;66.30
44647;DHT22;56315;-33.902;151.160;2022-10-16T00:38:54;31.70;67.50
44647;DHT22;56315;-33.902;151.160;2022-10-16T00:41:22;31.20;67.50
44647;DHT22;56315;-33.902;151.160;2022-10-16T00:46:29;31.00;70.30
44647;DHT22;56315;-33.902;151.160;2022-10-16T00:48:57;30.80;69.20
44647;DHT22;56315;-33.902;151.160;2022-10-16T00:51:28;30.30;70.00
44647;DHT22;56315;-33.902;151.160;2022-10-16T00:53:56;29.80;70.10
44647;DHT22;56315;-33.902;151.160;2022-10-16T00:56:23;29.40;71.70
44647;DHT22;56315;-33.902;151.160;2022-10-16T00:58:50;29.30;70.70
44647;DHT22;56315;-33.902;151.160;2022-10-16T01:01:17;29.20;71.40
44647;DHT22;56315;-33.902;151.160;2022-10-16T01:03:43;28.90;72.60
44647;DHT22;56315;-33.902;151.160;2022-10-16T01:08:57;27.90;73.80
44647;DHT22;56315;-33.902;151.160;2022-10-16T01:11:33;27.70;74.60
44647;DHT22;56315;-33.902;151.160;2022-10-16T01:14:06;27.50;75.70
44647;DHT22;56315;-33.902;151.160;2022-10-16T01:16:39;27.20;75.90
44647;DHT22;56315;-33.902;151.160;2022-10-16T01:19:17;27.00;77.40
44647;DHT22;56315;-33.902;151.160;2022-10-16T01:21:46;27.00;78.00
44647;DHT22;56315;-33.902;151.160;2022-10-16T01:24:22;26.90;76.70
44647;DHT22;56315;-33.902;151.160;2022-10-16T01:32:06;26.00;80.00
44647;DHT22;56315;-33.902;151.160;2022-10-16T01:34:40;25.90;81.00
44647;DHT22;56315;-33.902;151.160;2022-10-16T01:37:09;25.90;83.00
44647;DHT22;56315;-33.902;151.160;2022-10-16T01:39:38;26.10;83.90
44647;DHT22;56315;-33.902;151.160;2022-10-16T01:42:28;26.60;81.50
44647;DHT22;56315;-33.902;151.160;2022-10-16T01:44:52;26.80;81.80
44647;DHT22;56315;-33.902;151.160;2022-10-16T01:47:21;27.00;81.30
44647;DHT22;56315;-33.902;151.160;2022-10-16T01:49:48;27.30;78.80
44647;DHT22;56315;-33.902;151.160;2022-10-16T01:52:16;27.30;79.60
44647;DHT22;56315;-33.902;151.160;2022-10-16T01:54:45;27.60;78.50
44647;DHT22;56315;-33.902;151.160;2022-10-16T01:57:14;27.70;79.90
44647;DHT22;56315;-33.902;151.160;2022-10-16T01:59:46;27.70;78.70
44647;DHT22;56315;-33.902;151.160;2022-10-16T02:02:13;27.40;81.00
44647;DHT22;56315;-33.902;151.160;2022-10-16T02:04:48;27.40;79.60
44647;DHT22;56315;-33.902;151.160;2022-10-16T02:07:16;27.00;79.80
44647;DHT22;56315;-33.902;151.160;2022-10-16T02:09:43;27.00;79.70
44647;DHT22;56315;-33.902;151.160;2022-10-16T02:14:54;26.70;81.70
44647;DHT22;56315;-33.902;151.160;2022-10-16T02:17:21;26.60;82.20
44647;DHT22;56315;-33.902;151.160;2022-10-16T02:19:48;26.70;83.60
44647;DHT22;56315;-33.902;151.160;2022-10-16T02:22:17;26.80;83.00
44647;DHT22;56315;-33.902;151.160;2022-10-16T02:24:51;26.80;83.30
44647;DHT22;56315;-33.902;151.160;2022-10-16T02:30:06;26.50;81.70
44647;DHT22;56315;-33.902;151.160;2022-10-16T02:32:33;26.30;82.80
44647;DHT22;56315;-33.902;151.160;2022-10-16T02:35:01;26.40;86.10
44647;DHT22;56315;-33.902;151.160;2022-10-16T02:37:28;26.40;84.00
44647;DHT22;56315;-33.902;151.160;2022-10-16T02:39:56;26.20;85.20
44647;DHT22;56315;-33.902;151.160;2022-10-16T02:42:27;26.00;85.90
44647;DHT22;56315;-33.902;151.160;2022-10-16T02:44:54;25.80;86.60
44647;DHT22;56315;-33.902;151.160;2022-10-16T02:47:21;25.70;87.60
44647;DHT22;56315;-33.902;151.160;2022-10-16T02:49:47;25.80;87.80
44647;DHT22;56315;-33.902;151.160;2022-10-16T02:52:14;26.00;89.20
44647;DHT22;56315;-33.902;151.160;2022-10-16T02:54:40;26.20;86.20
44647;DHT22;56315;-33.902;151.160;2022-10-16T02:57:07;26.30;86.60
44647;DHT22;56315;-33.902;151.160;2022-10-16T02:59:34;26.30;85.70
44647;DHT22;56315;-33.902;151.160;2022-10-16T03:02:00;26.10;87.00
44647;DHT22;56315;-33.902;151.160;2022-10-16T03:04:27;26.00;86.00
44647;DHT22;56315;-33.902;151.160;2022-10-16T03:06:54;25.90;86.80
44647;DHT22;56315;-33.902;151.160;2022-10-16T03:09:20;25.90;87.90
44647;DHT22;56315;-33.902;151.160;2022-10-16T03:11:47;25.70;87.50
44647;DHT22;56315;-33.902;151.160;2022-10-16T03:14:14;25.50;87.40
44647;DHT22;56315;-33.902;151.160;2022-10-16T03:16:41;25.50;88.60
44647;DHT22;56315;-33.902;151.160;2022-10-16T03:19:07;25.40;87.20
44647;DHT22;56315;-33.902;151.160;2022-10-16T03:21:34;25.20;87.50
44647;DHT22;56315;-33.902;151.160;2022-10-16T03:24:01;25.10;88.60
44647;DHT22;56315;-33.902;151.160;2022-10-16T03:26:27;25.00;88.60
44647;DHT22;56315;-33.902;151.160;2022-10-16T03:28:54;25.00;90.40
44647;DHT22;56315;-33.902;151.160;2022-10-16T03:31:21;25.10;89.80
44647;DHT22;56315;-33.902;151.160;2022-10-16T03:33:47;25.00;88.50
44647;DHT22;56315;-33.902;151.160;2022-10-16T03:36:14;24.70;90.60
44647;DHT22;56315;-33.902;151.160;2022-10-16T03:38:41;24.70;90.10
44647;DHT22;56315;-33.902;151.160;2022-10-16T03:41:07;24.70;90.40
44647;DHT22;56315;-33.902;151.160;2022-10-16T03:43:34;24.80;90.60
44647;DHT22;56315;-33.902;151.160;2022-10-16T03:46:00;24.60;90.50
44647;DHT22;56315;-33.902;151.160;2022-10-16T03:48:27;24.40;91.00
44647;DHT22;56315;-33.902;151.160;2022-10-16T03:50:54;24.40;91.30
44647;DHT22;56315;-33.902;151.160;2022-10-16T03:53:20;24.30;91.70
44647;DHT22;56315;-33.902;151.160;2022-10-16T03:55:47;24.30;91.20
44647;DHT22;56315;-33.902;151.160;2022-10-16T03:58:14;24.20;91.70
44647;DHT22;56315;-33.902;151.160;2022-10-16T04:00:44;24.20;92.50
44647;DHT22;56315;-33.902;151.160;2022-10-16T04:03:11;24.30;92.10
44647;DHT22;56315;-33.902;151.160;2022-10-16T04:05:37;24.30;91.60
44647;DHT22;56315;-33.902;151.160;2022-10-16T04:08:04;24.30;92.40
44647;DHT22;56315;-33.902;151.160;2022-10-16T04:10:30;24.40;92.20
44647;DHT22;56315;-33.902;151.160;2022-10-16T04:12:57;24.50;92.20
44647;DHT22;56315;-33.902;151.160;2022-10-16T04:15:24;24.30;92.40
44647;DHT22;56315;-33.902;151.160;2022-10-16T04:17:51;24.30;92.00
44647;DHT22;56315;-33.902;151.160;2022-10-16T04:20:18;24.20;92.30
44647;DHT22;56315;-33.902;151.160;2022-10-16T04:22:44;24.00;92.70
44647;DHT22;56315;-33.902;151.160;2022-10-16T04:25:11;23.80;92.90
44647;DHT22;56315;-33.902;151.160;2022-10-16T04:27:38;23.80;93.50
44647;DHT22;56315;-33.902;151.160;2022-10-16T04:30:05;23.90;92.90
44647;DHT22;56315;-33.902;151.160;2022-10-16T04:32:31;23.60;93.40
44647;DHT22;56315;-33.902;151.160;2022-10-16T04:34:58;23.60;93.90
44647;DHT22;56315;-33.902;151.160;2022-10-16T04:37:25;23.60;94.60
44647;DHT22;56315;-33.902;151.160;2022-10-16T04:39:52;23.70;93.90
44647;DHT22;56315;-33.902;151.160;2022-10-16T04:42:19;23.60;93.70
44647;DHT22;56315;-33.902;151.160;2022-10-16T04:44:46;23.60;94.00
44647;DHT22;56315;-33.902;151.160;2022-10-16T04:47:13;23.60;94.60
44647;DHT22;56315;-33.902;151.160;2022-10-16T04:49:40;23.50;94.30
44647;DHT22;56315;-33.902;151.160;2022-10-16T04:52:06;23.30;94.30
44647;DHT22;56315;-33.902;151.160;2022-10-16T04:54:34;23.20;95.30
44647;DHT22;56315;-33.902;151.160;2022-10-16T04:57:01;23.20;95.50
44647;DHT22;56315;-33.902;151.160;2022-10-16T04:59:28;23.30;95.10
44647;DHT22;56315;-33.902;151.160;2022-10-16T05:01:54;23.30;94.70
44647;DHT22;56315;-33.902;151.160;2022-10-16T05:04:21;23.30;95.20
44647;DHT22;56315;-33.902;151.160;2022-10-16T05:06:50;23.20;95.20
44647;DHT22;56315;-33.902;151.160;2022-10-16T05:09:16;23.20;95.40
44647;DHT22;56315;-33.902;151.160;2022-10-16T05:11:43;23.10;95.30
44647;DHT22;56315;-33.902;151.160;2022-10-16T05:14:10;22.90;96.00
44647;DHT22;56315;-33.902;151.160;2022-10-16T05:16:36;23.00;96.20
44647;DHT22;56315;-33.902;151.160;2022-10-16T05:19:03;22.90;96.40
44647;DHT22;56315;-33.902;151.160;2022-10-16T05:21:30;22.80;96.10
44647;DHT22;56315;-33.902;151.160;2022-10-16T05:23:56;22.80;96.60
44647;DHT22;56315;-33.902;151.160;2022-10-16T05:26:23;22.80;96.80
44647;DHT22;56315;-33.902;151.160;2022-10-16T05:28:49;22.80;97.00
44647;DHT22;56315;-33.902;151.160;2022-10-16T05:31:16;22.80;97.10
44647;DHT22;56315;-33.902;151.160;2022-10-16T05:33:43;22.70;97.10
44647;DHT22;56315;-33.902;151.160;2022-10-16T05:36:09;22.60;97.50
44647;DHT22;56315;-33.902;151.160;2022-10-16T05:38:36;22.40;98.00
44647;DHT22;56315;-33.902;151.160;2022-10-16T05:41:04;22.40;97.60
44647;DHT22;56315;-33.902;151.160;2022-10-16T05:43:31;22.30;97.90
44647;DHT22;56315;-33.902;151.160;2022-10-16T05:46:02;22.30;98.00
44647;DHT22;56315;-33.902;151.160;2022-10-16T05:48:29;22.30;98.40
44647;DHT22;56315;-33.902;151.160;2022-10-16T05:50:57;22.20;98.70
44647;DHT22;56315;-33.902;151.160;2022-10-16T05:53:24;22.10;99.50
44647;DHT22;56315;-33.902;151.160;2022-10-16T05:55:51;22.10;99.40
44647;DHT22;56315;-33.902;151.160;2022-10-16T05:58:18;22.10;99.40
44647;DHT22;56315;-33.902;151.160;2022-10-16T06:00:52;22.10;99.90
44647;DHT22;56315;-33.902;151.160;2022-10-16T06:03:18;22.10;99.70
44647;DHT22;56315;-33.902;151.160;2022-10-16T06:05:45;22.00;99.70
44647;DHT22;56315;-33.902;151.160;2022-10-16T06:08:12;21.90;99.40
44647;DHT22;56315;-33.902;151.160;2022-10-16T06:10:38;21.80;99.90
44647;DHT22;56315;-33.902;151.160;2022-10-16T06:13:05;21.90;99.90
44647;DHT22;56315;-33.902;151.160;2022-10-16T06:15:31;21.80;99.90
44647;DHT22;56315;-33.902;151.160;2022-10-16T06:17:58;21.90;99.90
44647;DHT22;56315;-33.902;151.160;2022-10-16T06:20:25;21.90;99.90
44647;DHT22;56315;-33.902;151.160;2022-10-16T06:22:52;21.90;99.90
44647;DHT22;56315;-33.902;151.160;2022-10-16T06:25:18;21.80;99.90
44647;DHT22;56315;-33.902;151.160;2022-10-16T06:27:45;21.70;99.90
44647;DHT22;56315;-33.902;151.160;2022-10-16T06:30:12;21.60;99.90
44647;DHT22;56315;-33.902;151.160;2022-10-16T06:32:38;21.50;99.90
44647;DHT22;56315;-33.902;151.160;2022-10-16T06:35:05;21.70;99.90
44647;DHT22;56315;-33.902;151.160;2022-10-16T06:37:32;21.70;99.90
44647;DHT22;56315;-33.902;151.160;2022-10-16T06:39:58;21.60;99.90
44647;DHT22;56315;-33.902;151.160;2022-10-16T06:42:25;21.60;99.90
44647;DHT22;56315;-33.902;151.160;2022-10-16T06:44:52;21.50;99.90
44647;DHT22;56315;-33.902;151.160;2022-10-16T06:47:19;21.50;99.90
44647;DHT22;56315;-33.902;151.160;2022-10-16T06:49:45;21.50;99.90
44647;DHT22;56315;-33.902;151.160;2022-10-16T06:52:12;21.40;99.90
44647;DHT22;56315;-33.902;151.160;2022-10-16T06:54:39;21.40;99.90
44647;DHT22;56315;-33.902;151.160;2022-10-16T06:57:05;21.50;99.90
44647;DHT22;56315;-33.902;151.160;2022-10-16T06:59:32;21.40;99.90
44647;DHT22;56315;-33.902;151.160;2022-10-16T07:01:58;21.30;99.90
44647;DHT22;56315;-33.902;151.160;2022-10-16T07:04:25;21.20;99.90
44647;DHT22;56315;-33.902;151.160;2022-10-16T07:06:52;21.20;99.90
44647;DHT22;56315;-33.902;151.160;2022-10-16T07:09:18;21.20;99.90
44647;DHT22;56315;-33.902;151.160;2022-10-16T07:11:45;21.20;99.90
44647;DHT22;56315;-33.902;151.160;2022-10-16T07:14:16;21.20;99.90
44647;DHT22;56315;-33.902;151.160;2022-10-16T07:16:43;21.10;99.90
44647;DHT22;56315;-33.902;151.160;2022-10-16T07:19:09;21.00;99.90
44647;DHT22;56315;-33.902;151.160;2022-10-16T07:21:38;20.90;99.90
44647;DHT22;56315;-33.902;151.160;2022-10-16T07:24:05;20.80;99.90
44647;DHT22;56315;-33.902;151.160;2022-10-16T07:26:34;20.90;99.90
44647;DHT22;56315;-33.902;151.160;2022-10-16T07:29:01;20.90;99.90
44647;DHT22;56315;-33.902;151.160;2022-10-16T07:31:27;20.90;99.90
44647;DHT22;56315;-33.902;151.160;2022-10-16T07:33:54;20.90;99.90
44647;DHT22;56315;-33.902;151.160;2022-10-16T07:36:21;20.90;99.90
44647;DHT22;56315;-33.902;151.160;2022-10-16T07:38:48;20.80;99.90
44647;DHT22;56315;-33.902;151.160;2022-10-16T07:41:16;20.70;99.90
44647;DHT22;56315;-33.902;151.160;2022-10-16T07:43:46;20.50;99.90
44647;DHT22;56315;-33.902;151.160;2022-10-16T07:46:13;20.40;99.90
44647;DHT22;56315;-33.902;151.160;2022-10-16T07:48:40;20.20;99.90
44647;DHT22;56315;-33.902;151.160;2022-10-16T07:51:11;20.10;99.90
44647;DHT22;56315;-33.902;151.160;2022-10-16T07:53:38;20.00;99.90
44647;DHT22;56315;-33.902;151.160;2022-10-16T07:56:05;20.00;99.90
44647;DHT22;56315;-33.902;151.160;2022-10-16T07:58:33;19.90;99.90
44647;DHT22;56315;-33.902;151.160;2022-10-16T08:01:03;19.90;99.90
44647;DHT22;56315;-33.902;151.160;2022-10-16T08:03:30;19.80;99.90
44647;DHT22;56315;-33.902;151.160;2022-10-16T08:05:57;19.80;99.90
44647;DHT22;56315;-33.902;151.160;2022-10-16T08:08:24;19.60;99.90
44647;DHT22;56315;-33.902;151.160;2022-10-16T08:10:51;19.50;99.90
44647;DHT22;56315;-33.902;151.160;2022-10-16T08:13:17;19.50;99.90
44647;DHT22;56315;-33.902;151.160;2022-10-16T08:15:44;19.40;99.90
44647;DHT22;56315;-33.902;151.160;2022-10-16T08:18:12;19.40;99.90
44647;DHT22;56315;-33.902;151.160;2022-10-16T08:20:39;19.30;99.90
44647;DHT22;56315;-33.902;151.160;2022-10-16T08:23:06;19.30;99.90
44647;DHT22;56315;-33.902;151.160;2022-10-16T08:25:36;19.20;99.90
44647;DHT22;56315;-33.902;151.160;2022-10-16T08:28:04;19.10;99.90
44647;DHT22;56315;-33.902;151.160;2022-10-16T08:30:31;19.10;99.90
44647;DHT22;56315;-33.902;151.160;2022-10-16T08:32:58;19.00;99.90
44647;DHT22;56315;-33.902;151.160;2022-10-16T08:35:25;18.90;99.90
44647;DHT22;56315;-33.902;151.160;2022-10-16T08:37:51;18.90;99.90
44647;DHT22;56315;-33.902;151.160;2022-10-16T08:40:19;18.90;99.90
44647;DHT22;56315;-33.902;151.160;2022-10-16T08:48:14;18.90;99.90
44647;DHT22;56315;-33.902;151.160;2022-10-16T08:50:43;18.90;99.90
44647;DHT22;56315;-33.902;151.160;2022-10-16T08:53:18;18.90;99.90
44647;DHT22;56315;-33.902;151.160;2022-10-16T08:55:49;18.90;99.90
44647;DHT22;56315;-33.902;151.160;2022-10-16T08:58:18;19.00;99.90
44647;DHT22;56315;-33.902;151.160;2022-10-16T09:00:48;19.00;99.90
44647;DHT22;56315;-33.902;151.160;2022-10-16T09:14:23;18.90;99.90
44647;DHT22;56315;-33.902;151.160;2022-10-16T09:16:41;18.80;99.90
44647;DHT22;56315;-33.902;151.160;2022-10-16T09:21:44;18.80;99.90
44647;DHT22;56315;-33.902;151.160;2022-10-16T09:26:37;18.70;99.90
44647;DHT22;56315;-33.902;151.160;2022-10-16T09:29:04;18.60;99.90
44647;DHT22;56315;-33.902;151.160;2022-10-16T09:31:31;18.60;99.90
44647;DHT22;56315;-33.902;151.160;2022-10-16T09:34:00;18.60;99.90
44647;DHT22;56315;-33.902;151.160;2022-10-16T09:36:36;18.60;99.90
44647;DHT22;56315;-33.902;151.160;2022-10-16T09:39:07;18.60;99.90
44647;DHT22;56315;-33.902;151.160;2022-10-16T09:41:34;18.60;99.90
44647;DHT22;56315;-33.902;151.160;2022-10-16T09:44:02;18.60;99.90
44647;DHT22;56315;-33.902;151.160;2022-10-16T09:46:34;18.60;99.90
44647;DHT22;56315;-33.902;151.160;2022-10-16T09:49:05;18.60;99.90
44647;DHT22;56315;-33.902;151.160;2022-10-16T09:51:36;18.60;99.90
44647;DHT22;56315;-33.902;151.160;2022-10-16T09:56:34;18.60;99.90
44647;DHT22;56315;-33.902;151.160;2022-10-16T09:59:12;18.60;99.90
44647;DHT22;56315;-33.902;151.160;2022-10-16T10:01:40;18.60;99.90
44647;DHT22;56315;-33.902;151.160;2022-10-16T10:04:07;18.60;99.90
44647;DHT22;56315;-33.902;151.160;2022-10-16T10:06:56;18.50;99.90
44647;DHT22;56315;-33.902;151.160;2022-10-16T10:11:50;18.40;99.90
44647;DHT22;56315;-33.902;151.160;2022-10-16T10:14:18;18.30;99.90
44647;DHT22;56315;-33.902;151.160;2022-10-16T10:16:45;18.30;99.90
44647;DHT22;56315;-33.902;151.160;2022-10-16T10:19:22;18.30;99.90
44647;DHT22;56315;-33.902;151.160;2022-10-16T10:21:49;18.30;99.90
44647;DHT22;56315;-33.902;151.160;2022-10-16T10:24:18;18.20;99.90
44647;DHT22;56315;-33.902;151.160;2022-10-16T10:26:49;18.30;99.90
44647;DHT22;56315;-33.902;151.160;2022-10-16T10:29:24;18.20;99.90
44647;DHT22;56315;-33.902;151.160;2022-10-16T10:31:57;18.20;99.90
44647;DHT22;56315;-33.902;151.160;2022-10-16T10:37:19;18.20;99.90
44647;DHT22;56315;-33.902;151.160;2022-10-16T10:39:55;18.20;99.90
44647;DHT22;56315;-33.902;151.160;2022-10-16T10:42:26;18.10;99.90
44647;DHT22;56315;-33.902;151.160;2022-10-16T10:47:36;18.10;99.90
44647;DHT22;56315;-33.902;151.160;2022-10-16T10:55:51;18.30;99.90
44647;DHT22;56315;-33.902;151.160;2022-10-16T11:00:56;18.30;99.90
44647;DHT22;56315;-33.902;151.160;2022-10-16T11:03:42;18.30;99.90
44647;DHT22;56315;-33.902;151.160;2022-10-16T11:06:16;18.40;99.90
44647;DHT22;56315;-33.902;151.160;2022-10-16T11:11:18;18.30;99.90
44647;DHT22;56315;-33.902;151.160;2022-10-16T11:14:00;18.40;99.90
44647;DHT22;56315;-33.902;151.160;2022-10-16T11:16:30;18.30;99.90
44647;DHT22;56315;-33.902;151.160;2022-10-16T11:18:59;18.30;99.90
44647;DHT22;56315;-33.902;151.160;2022-10-16T11:21:29;18.30;99.90
44647;DHT22;56315;-33.902;151.160;2022-10-16T11:26:24;18.20;99.90
44647;DHT22;56315;-33.902;151.160;2022-10-16T11:28:55;18.20;99.90
44647;DHT22;56315;-33.902;151.160;2022-10-16T11:33:55;18.10;99.90
44647;DHT22;56315;-33.902;151.160;2022-10-16T11:39:20;18.10;99.90
44647;DHT22;56315;-33.902;151.160;2022-10-16T11:41:49;18.10;99.90
44647;DHT22;56315;-33.902;151.160;2022-10-16T11:47:35;18.10;99.90
44647;DHT22;56315;-33.902;151.160;2022-10-16T11:49:42;18.10;99.90
44647;DHT22;56315;-33.902;151.160;2022-10-16T11:52:25;18.10;99.90
44647;DHT22;56315;-33.902;151.160;2022-10-16T11:55:14;18.10;99.90
44647;DHT22;56315;-33.902;151.160;2022-10-16T11:57:57;18.00;99.90
44647;DHT22;56315;-33.902;151.160;2022-10-16T12:00:26;18.10;99.90
44647;DHT22;56315;-33.902;151.160;2022-10-16T12:03:04;18.00;99.90
44647;DHT22;56315;-33.902;151.160;2022-10-16T12:08:22;18.00;99.90
44647;DHT22;56315;-33.902;151.160;2022-10-16T12:10:48;18.00;99.90
44647;DHT22;56315;-33.902;151.160;2022-10-16T12:13:32;18.00;99.90
44647;DHT22;56315;-33.902;151.160;2022-10-16T12:18:39;17.90;99.90
44647;DHT22;56315;-33.902;151.160;2022-10-16T12:21:06;17.80;99.90
44647;DHT22;56315;-33.902;151.160;2022-10-16T12:23:37;17.70;99.90
44647;DHT22;56315;-33.902;151.160;2022-10-16T12:26:04;17.70;99.90
44647;DHT22;56315;-33.902;151.160;2022-10-16T12:28:32;17.60;99.90
44647;DHT22;56315;-33.902;151.160;2022-10-16T12:31:05;17.60;99.90
44647;DHT22;56315;-33.902;151.160;2022-10-16T12:33:35;17.50;99.90
44647;DHT22;56315;-33.902;151.160;2022-10-16T12:36:03;17.50;99.90
44647;DHT22;56315;-33.902;151.160;2022-10-16T12:41:02;17.40;99.90
44647;DHT22;56315;-33.902;151.160;2022-10-16T12:46:02;17.30;99.90
44647;DHT22;56315;-33.902;151.160;2022-10-16T12:48:30;17.30;99.90
44647;DHT22;56315;-33.902;151.160;2022-10-16T12:50:57;17.30;99.90
44647;DHT22;56315;-33.902;151.160;2022-10-16T12:53:24;17.20;99.90
44647;DHT22;56315;-33.902;151.160;2022-10-16T12:55:57;17.20;99.90
44647;DHT22;56315;-33.902;151.160;2022-10-16T13:19:01;16.90;99.90
44647;DHT22;56315;-33.902;151.160;2022-10-16T13:21:38;16.90;99.90
44647;DHT22;56315;-33.902;151.160;2022-10-16T13:29:19;16.90;99.90
44647;DHT22;56315;-33.902;151.160;2022-10-16T13:31:46;16.80;99.90
44647;DHT22;56315;-33.902;151.160;2022-10-16T13:34:17;16.80;99.90
44647;DHT22;56315;-33.902;151.160;2022-10-16T13:36:46;16.80;99.90
44647;DHT22;56315;-33.902;151.160;2022-10-16T13:39:14;16.80;99.90
44647;DHT22;56315;-33.902;151.160;2022-10-16T13:41:42;16.80;99.90
44647;DHT22;56315;-33.902;151.160;2022-10-16T13:44:17;16.70;99.90
44647;DHT22;56315;-33.902;151.160;2022-10-16T13:46:45;16.80;99.90
44647;DHT22;56315;-33.902;151.160;2022-10-16T13:49:13;16.70;99.90
44647;DHT22;56315;-33.902;151.160;2022-10-16T13:51:40;16.70;99.90
44647;DHT22;56315;-33.902;151.160;2022-10-16T13:54:09;16.70;99.90
44647;DHT22;56315;-33.902;151.160;2022-10-16T13:56:38;16.70;99.90
44647;DHT22;56315;-33.902;151.160;2022-10-16T13:59:05;16.70;99.90
44647;DHT22;56315;-33.902;151.160;2022-10-16T14:01:51;16.70;99.90
44647;DHT22;56315;-33.902;151.160;2022-10-16T14:04:18;16.80;99.90
44647;DHT22;56315;-33.902;151.160;2022-10-16T14:06:46;16.90;99.90
44647;DHT22;56315;-33.902;151.160;2022-10-16T14:09:26;16.90;99.90
44647;DHT22;56315;-33.902;151.160;2022-10-16T14:11:54;17.00;99.90
44647;DHT22;56315;-33.902;151.160;2022-10-16T14:14:22;17.10;99.90
44647;DHT22;56315;-33.902;151.160;2022-10-16T14:16:49;17.10;99.90
44647;DHT22;56315;-33.902;151.160;2022-10-16T14:21:42;17.20;99.90
44647;DHT22;56315;-33.902;151.160;2022-10-16T14:24:12;17.20;99.90
44647;DHT22;56315;-33.902;151.160;2022-10-16T14:26:43;17.20;99.90
44647;DHT22;56315;-33.902;151.160;2022-10-16T14:29:11;17.20;99.90
44647;DHT22;56315;-33.902;151.160;2022-10-16T14:31:38;17.20;99.90
44647;DHT22;56315;-33.902;151.160;2022-10-16T14:34:25;17.20;99.90
44647;DHT22;56315;-33.902;151.160;2022-10-16T14:36:54;17.30;99.90
44647;DHT22;56315;-33.902;151.160;2022-10-16T14:39:21;17.30;99.90
44647;DHT22;56315;-33.902;151.160;2022-10-16T14:41:49;17.30;99.90
44647;DHT22;56315;-33.902;151.160;2022-10-16T14:44:26;17.30;99.90
44647;DHT22;56315;-33.902;151.160;2022-10-16T14:46:54;17.30;99.90
44647;DHT22;56315;-33.902;151.160;2022-10-16T14:49:20;17.30;99.90
44647;DHT22;56315;-33.902;151.160;2022-10-16T14:51:48;17.30;99.90
44647;DHT22;56315;-33.902;151.160;2022-10-16T14:54:15;17.30;99.90
44647;DHT22;56315;-33.902;151.160;2022-10-16T14:56:47;17.30;99.90
44647;DHT22;56315;-33.902;151.160;2022-10-16T14:59:19;17.30;99.90
44647;DHT22;56315;-33.902;151.160;2022-10-16T15:01:46;17.30;99.90
44647;DHT22;56315;-33.902;151.160;2022-10-16T15:04:12;17.30;99.90
44647;DHT22;56315;-33.902;151.160;2022-10-16T15:06:39;17.30;99.90
44647;DHT22;56315;-33.902;151.160;2022-10-16T15:09:06;17.40;99.90
44647;DHT22;56315;-33.902;151.160;2022-10-16T15:11:33;17.40;99.90
44647;DHT22;56315;-33.902;151.160;2022-10-16T15:14:00;17.40;99.90
44647;DHT22;56315;-33.902;151.160;2022-10-16T15:16:26;17.50;99.90
44647;DHT22;56315;-33.902;151.160;2022-10-16T15:18:53;17.40;99.90
44647;DHT22;56315;-33.902;151.160;2022-10-16T15:21:30;17.40;99.90
44647;DHT22;56315;-33.902;151.160;2022-10-16T15:23:57;17.30;99.90
44647;DHT22;56315;-33.902;151.160;2022-10-16T15:26:27;17.40;99.90
44647;DHT22;56315;-33.902;151.160;2022-10-16T15:28:55;17.30;99.90
44647;DHT22;56315;-33.902;151.160;2022-10-16T15:31:21;17.20;99.90
44647;DHT22;56315;-33.902;151.160;2022-10-16T15:33:52;17.10;99.90
44647;DHT22;56315;-33.902;151.160;2022-10-16T15:36:28;17.00;99.90
44647;DHT22;56315;-33.902;151.160;2022-10-16T15:38:56;17.00;99.90
44647;DHT22;56315;-33.902;151.160;2022-10-16T15:41:22;16.90;99.90
44647;DHT22;56315;-33.902;151.160;2022-10-16T15:43:49;16.90;99.90
44647;DHT22;56315;-33.902;151.160;2022-10-16T15:46:20;16.80;99.90
44647;DHT22;56315;-33.902;151.160;2022-10-16T15:48:47;16.80;99.90
44647;DHT22;56315;-33.902;151.160;2022-10-16T15:51:14;16.70;99.90
44647;DHT22;56315;-33.902;151.160;2022-10-16T15:53:41;16.70;99.90
44647;DHT22;56315;-33.902;151.160;2022-10-16T15:56:08;16.70;99.90
44647;DHT22;56315;-33.902;151.160;2022-10-16T15:58:35;16.70;99.90
44647;DHT22;56315;-33.902;151.160;2022-10-16T16:01:01;16.60;99.90
44647;DHT22;56315;-33.902;151.160;2022-10-16T16:03:29;16.70;99.90
44647;DHT22;56315;-33.902;151.160;2022-10-16T16:05:56;16.70;99.90
44647;DHT22;56315;-33.902;151.160;2022-10-16T16:08:23;16.60;99.90
44647;DHT22;56315;-33.902;151.160;2022-10-16T16:11:03;16.60;99.90
44647;DHT22;56315;-33.902;151.160;2022-10-16T16:13:30;16.60;99.90
44647;DHT22;56315;-33.902;151.160;2022-10-16T16:15:57;16.60;99.90
44647;DHT22;56315;-33.902;151.160;2022-10-16T16:18:23;16.60;99.90
44647;DHT22;56315;-33.902;151.160;2022-10-16T16:20:51;16.50;99.90
44647;DHT22;56315;-33.902;151.160;2022-10-16T16:23:17;16.60;99.90
44647;DHT22;56315;-33.902;151.160;2022-10-16T16:25:45;16.60;99.90
44647;DHT22;56315;-33.902;151.160;2022-10-16T16:28:28;16.60;99.90
44647;DHT22;56315;-33.902;151.160;2022-10-16T16:30:54;16.50;99.90
44647;DHT22;56315;-33.902;151.160;2022-10-16T16:33:21;16.50;99.90
44647;DHT22;56315;-33.902;151.160;2022-10-16T16:35:47;16.40;99.90
44647;DHT22;56315;-33.902;151.160;2022-10-16T16:38:14;16.40;99.90
44647;DHT22;56315;-33.902;151.160;2022-10-16T16:40:41;16.40;99.90
44647;DHT22;56315;-33.902;151.160;2022-10-16T16:43:07;16.40;99.90
44647;DHT22;56315;-33.902;151.160;2022-10-16T16:45:37;16.40;99.90